TimeCST,TemperatureF,Dew PointF,Humidity,Sea Level PressureIn,VisibilityMPH,Wind Direction,Wind SpeedMPH,Gust SpeedMPH,PrecipitationIn,Events,Conditions,WindDirDegrees,DateUTC
12:15 AM,1.4,-4.0,78,30.29,10.0,NW,4.6,-,N/A,,Clear,320,2013-01-26 06:15:00
12:34 AM,1.4,-4.0,78,30.29,10.0,WNW,3.5,-,N/A,,Clear,290,2013-01-26 06:34:00
12:55 AM,1.4,-4.0,78,30.29,10.0,Calm,Calm,-,N/A,,Clear,0,2013-01-26 06:55:00
1:15 AM,-0.4,-5.8,78,30.30,10.0,WSW,3.5,-,N/A,,Clear,240,2013-01-26 07:15:00
1:35 AM,-0.4,-5.8,78,30.30,10.0,WSW,3.5,-,N/A,,Clear,240,2013-01-26 07:35:00
1:54 AM,-0.4,-5.8,78,30.31,10.0,Calm,Calm,-,N/A,,Clear,0,2013-01-26 07:54:00
2:15 AM,-0.4,-5.8,78,30.32,10.0,Calm,Calm,-,N/A,,Clear,0,2013-01-26 08:15:00
2:35 AM,-0.4,-5.8,78,30.31,10.0,Calm,Calm,-,N/A,,Clear,0,2013-01-26 08:35:00
2:54 AM,-0.4,-5.8,78,30.31,10.0,Calm,Calm,-,N/A,,Clear,0,2013-01-26 08:54:00
3:15 AM,-0.4,-5.8,78,30.31,10.0,Calm,Calm,-,N/A,,Clear,0,2013-01-26 09:15:00
3:35 AM,-0.4,-5.8,78,30.30,10.0,Calm,Calm,-,N/A,,Clear,0,2013-01-26 09:35:00
3:54 AM,-0.4,-5.8,78,30.31,10.0,Calm,Calm,-,N/A,,Clear,0,2013-01-26 09:54:00
4:15 AM,-0.4,-5.8,78,30.30,10.0,Calm,Calm,-,N/A,,Clear,0,2013-01-26 10:15:00
4:35 AM,-0.4,-5.8,78,30.30,10.0,Calm,Calm,-,N/A,,Clear,0,2013-01-26 10:35:00
4:55 AM,-0.4,-5.8,78,30.30,10.0,Calm,Calm,-,N/A,,Clear,0,2013-01-26 10:55:00
5:14 AM,-0.4,-5.8,78,30.31,10.0,Calm,Calm,-,N/A,,Clear,0,2013-01-26 11:14:00
5:35 AM,-0.4,-5.8,78,30.31,10.0,Calm,Calm,-,N/A,,Clear,0,2013-01-26 11:35:00
5:54 AM,-0.4,-5.8,78,30.31,10.0,Calm,Calm,-,N/A,,Clear,0,2013-01-26 11:54:00
6:15 AM,-0.4,-5.8,78,30.31,10.0,Calm,Calm,-,N/A,,Clear,0,2013-01-26 12:15:00
6:35 AM,-0.4,-5.8,78,30.31,10.0,Calm,Calm,-,N/A,,Clear,0,2013-01-26 12:35:00
6:55 AM,-0.4,-5.8,78,30.31,10.0,East,3.5,-,N/A,,Clear,100,2013-01-26 12:55:00
7:15 AM,-0.4,-5.8,78,30.32,10.0,Calm,Calm,-,N/A,,Clear,0,2013-01-26 13:15:00
7:35 AM,-0.4,-5.8,78,30.33,10.0,Calm,Calm,-,N/A,,Clear,0,2013-01-26 13:35:00
7:54 AM,-0.4,-4.0,85,30.32,10.0,SE,3.5,-,N/A,,Clear,140,2013-01-26 13:54:00
8:15 AM,1.4,-2.2,85,30.33,10.0,Calm,Calm,-,N/A,,Clear,0,2013-01-26 14:15:00
8:35 AM,3.2,-0.4,85,30.32,10.0,ESE,3.5,-,N/A,,Clear,110,2013-01-26 14:35:00
8:54 AM,3.2,-0.4,85,30.33,10.0,East,3.5,-,N/A,,Clear,90,2013-01-26 14:54:00
9:15 AM,5.0,1.4,85,30.32,10.0,SE,6.9,-,N/A,,Clear,130,2013-01-26 15:15:00
9:34 AM,8.6,3.2,79,30.32,10.0,ESE,9.2,-,N/A,,Clear,120,2013-01-26 15:34:00
9:55 AM,10.4,5.0,79,30.32,10.0,SE,9.2,-,N/A,,Clear,130,2013-01-26 15:55:00
10:15 AM,12.2,5.0,73,30.31,10.0,ESE,9.2,-,N/A,,Clear,120,2013-01-26 16:15:00
10:55 AM,14.0,5.0,67,30.31,10.0,SE,10.4,-,N/A,,Clear,130,2013-01-26 16:55:00
11:15 AM,17.6,8.6,68,30.29,10.0,SE,10.4,-,N/A,,Clear,140,2013-01-26 17:15:00
11:35 AM,17.6,6.8,63,30.29,10.0,SE,10.4,-,N/A,,Scattered Clouds,130,2013-01-26 17:35:00
11:55 AM,19.4,6.8,58,30.28,10.0,SE,10.4,16.1,N/A,,Mostly Cloudy,130,2013-01-26 17:55:00
12:15 PM,19.4,6.8,58,30.27,10.0,SE,13.8,-,N/A,,Overcast,140,2013-01-26 18:15:00
12:35 PM,19.4,5.0,54,30.26,10.0,SE,11.5,-,N/A,,Mostly Cloudy,140,2013-01-26 18:35:00
12:54 PM,21.2,5.0,50,30.24,10.0,SE,16.1,-,N/A,,Mostly Cloudy,130,2013-01-26 18:54:00
1:15 PM,21.2,8.6,58,30.24,10.0,SE,12.7,17.3,N/A,,Mostly Cloudy,130,2013-01-26 19:15:00
1:35 PM,21.2,6.8,54,30.23,10.0,SE,11.5,-,N/A,,Scattered Clouds,140,2013-01-26 19:35:00
1:55 PM,21.2,6.8,54,30.22,10.0,SE,15.0,-,N/A,,Scattered Clouds,130,2013-01-26 19:55:00
2:15 PM,21.2,6.8,54,30.21,10.0,SE,15.0,-,N/A,,Overcast,130,2013-01-26 20:15:00
2:35 PM,21.2,8.6,58,30.20,10.0,SE,13.8,-,N/A,,Overcast,140,2013-01-26 20:35:00
2:54 PM,24.8,8.6,50,30.19,10.0,ESE,17.3,-,N/A,,Overcast,120,2013-01-26 20:54:00
3:35 PM,23.0,8.6,54,30.18,10.0,SE,17.3,-,N/A,,Overcast,130,2013-01-26 21:35:00
3:54 PM,23.0,8.6,54,30.17,10.0,SE,17.3,23.0,N/A,,Overcast,130,2013-01-26 21:54:00
4:15 PM,23.0,8.6,54,30.16,10.0,ESE,16.1,24.2,N/A,,Overcast,120,2013-01-26 22:15:00
4:35 PM,23.0,8.6,54,30.14,10.0,ESE,17.3,24.2,N/A,,Overcast,120,2013-01-26 22:35:00
4:55 PM,23.0,8.6,54,30.14,10.0,SE,13.8,23.0,N/A,,Overcast,130,2013-01-26 22:55:00
5:14 PM,23.0,8.6,54,30.13,10.0,ESE,15.0,19.6,N/A,,Overcast,120,2013-01-26 23:14:00
5:35 PM,23.0,8.6,54,30.14,10.0,SE,15.0,19.6,N/A,,Overcast,130,2013-01-26 23:35:00
5:55 PM,23.0,8.6,54,30.13,10.0,SE,15.0,-,N/A,,Overcast,130,2013-01-26 23:55:00
6:15 PM,24.8,10.4,54,30.13,10.0,SE,15.0,-,N/A,,Overcast,130,2013-01-27 00:15:00
6:35 PM,24.8,10.4,54,30.13,10.0,SE,12.7,-,N/A,,Overcast,130,2013-01-27 00:35:00
6:54 PM,24.8,8.6,50,30.13,10.0,SE,13.8,19.6,N/A,,Overcast,140,2013-01-27 00:54:00
7:15 PM,24.8,10.4,54,30.13,10.0,SE,13.8,-,N/A,,Overcast,140,2013-01-27 01:15:00
7:35 PM,24.8,10.4,54,30.13,10.0,SE,13.8,20.7,N/A,,Overcast,140,2013-01-27 01:35:00
7:55 PM,24.8,10.4,54,30.14,10.0,SE,13.8,17.3,N/A,,Overcast,140,2013-01-27 01:55:00
8:14 PM,24.8,10.4,54,30.14,10.0,SE,11.5,-,N/A,,Mostly Cloudy,140,2013-01-27 02:14:00
8:35 PM,24.8,10.4,54,30.14,10.0,SE,13.8,-,N/A,,Mostly Cloudy,140,2013-01-27 02:35:00
8:55 PM,24.8,10.4,54,30.13,10.0,SE,13.8,-,N/A,,Mostly Cloudy,140,2013-01-27 02:55:00
9:14 PM,24.8,10.4,54,30.12,10.0,SE,15.0,20.7,N/A,,Mostly Cloudy,140,2013-01-27 03:14:00
9:35 PM,24.8,10.4,54,30.11,10.0,SE,15.0,20.7,N/A,,Mostly Cloudy,140,2013-01-27 03:35:00
9:55 PM,24.8,10.4,54,30.11,10.0,SSE,15.0,19.6,N/A,,Mostly Cloudy,150,2013-01-27 03:55:00
10:14 PM,24.8,10.4,54,30.11,10.0,SE,12.7,-,N/A,,Scattered Clouds,140,2013-01-27 04:14:00
10:35 PM,24.8,10.4,54,30.11,10.0,SE,11.5,-,N/A,,Scattered Clouds,140,2013-01-27 04:35:00
10:55 PM,24.8,12.2,59,30.11,10.0,SE,15.0,-,N/A,,Mostly Cloudy,140,2013-01-27 04:55:00
11:14 PM,26.6,12.2,55,30.11,10.0,SE,13.8,-,N/A,,Mostly Cloudy,140,2013-01-27 05:14:00
11:35 PM,26.6,12.2,55,30.11,10.0,SE,11.5,-,N/A,,Scattered Clouds,140,2013-01-27 05:35:00
11:55 PM,26.6,12.2,55,30.10,10.0,SE,11.5,18.4,N/A,,Scattered Clouds,140,2013-01-27 05:55:00